createdAt,value
2023-03-08T00:10:38.073Z,11.90
2023-03-08T00:21:05.772Z,11.10
2023-03-08T00:31:31.447Z,12.90
2023-03-08T00:41:57.413Z,15.70
2023-03-08T00:52:22.977Z,13.20
2023-03-08T01:02:48.720Z,11.50
2023-03-08T01:13:14.792Z,12.80
2023-03-08T01:23:42.587Z,10.30
2023-03-08T01:34:08.720Z,11.70
2023-03-08T01:44:54.863Z,9.80
2023-03-08T01:55:21.771Z,12.30
2023-03-08T02:05:48.643Z,11.00
2023-03-08T02:16:16.902Z,11.40
2023-03-08T02:26:42.422Z,8.20
2023-03-08T02:37:08.799Z,12.00
2023-03-08T02:47:34.487Z,15.40
2023-03-08T02:58:00.543Z,12.20
2023-03-08T03:08:26.459Z,11.20
2023-03-08T03:18:55.492Z,9.50
2023-03-08T03:29:21.418Z,11.50
2023-03-08T03:39:47.435Z,8.30
2023-03-08T03:50:14.452Z,7.10
2023-03-08T04:00:39.936Z,7.70
2023-03-08T04:11:05.475Z,7.60
2023-03-08T04:21:31.508Z,8.10
2023-03-08T04:32:00.942Z,8.20
2023-03-08T04:42:26.767Z,5.80
2023-03-08T04:52:52.303Z,7.60
2023-03-08T05:03:18.551Z,7.30
2023-03-08T05:13:44.476Z,5.80
2023-03-08T05:24:10.830Z,7.20
2023-03-08T05:34:36.275Z,6.90
2023-03-08T05:45:02.213Z,7.90
2023-03-08T05:55:28.145Z,8.70
2023-03-08T06:05:53.657Z,7.60
2023-03-08T06:16:19.346Z,8.50
2023-03-08T06:26:45.088Z,8.80
2023-03-08T06:37:11.143Z,9.20
2023-03-08T06:47:37.099Z,7.70
2023-03-08T06:58:02.470Z,6.70
2023-03-08T07:08:28.214Z,6.00
2023-03-08T07:18:54.380Z,8.80
2023-03-08T07:29:20.327Z,7.90
2023-03-08T07:39:46.678Z,5.30
2023-03-08T07:50:14.022Z,6.50
2023-03-08T08:00:39.520Z,7.30
2023-03-08T08:11:10.809Z,6.40
2023-03-08T08:21:36.636Z,6.20
2023-03-08T08:32:04.256Z,6.70
2023-03-08T08:42:29.950Z,6.30
2023-03-08T08:52:57.485Z,7.30
2023-03-08T09:03:23.601Z,6.40
2023-03-08T09:13:49.104Z,5.80
2023-03-08T09:24:15.144Z,5.90
2023-03-08T09:34:40.966Z,5.00
2023-03-08T09:45:24.839Z,6.50
2023-03-08T09:55:55.876Z,5.90
2023-03-08T10:06:37.838Z,4.90
2023-03-08T10:17:13.064Z,5.40
2023-03-08T10:27:38.777Z,6.40
2023-03-08T10:38:05.170Z,6.10
2023-03-08T10:48:30.781Z,6.70
2023-03-08T10:58:59.615Z,5.80
2023-03-08T11:09:28.089Z,5.20
2023-03-08T11:30:51.073Z,5.80
2023-03-08T11:41:24.431Z,5.20
2023-03-08T11:51:58.856Z,4.60
2023-03-08T12:02:30.009Z,5.00
2023-03-08T12:13:00.125Z,5.00
2023-03-08T12:23:32.393Z,5.70
2023-03-08T12:33:59.915Z,4.80
2023-03-08T12:44:29.313Z,5.50
2023-03-08T12:55:01.696Z,5.80
2023-03-08T13:05:35.447Z,4.50
2023-03-08T13:16:20.528Z,6.10
2023-03-08T13:27:01.206Z,5.00
2023-03-08T13:37:29.470Z,5.10
2023-03-08T13:47:57.657Z,6.20
2023-03-08T13:58:33.186Z,5.80
2023-03-08T14:09:02.754Z,7.60
2023-03-08T14:19:31.560Z,7.40
2023-03-08T14:30:05.497Z,5.60
2023-03-08T14:40:35.591Z,12.10
2023-03-08T14:51:03.124Z,6.50
2023-03-08T15:01:30.470Z,4.00
2023-03-08T15:11:59.983Z,3.40
2023-03-08T15:22:25.706Z,3.20
2023-03-08T15:32:51.630Z,4.20
2023-03-08T15:43:17.479Z,4.80
2023-03-08T15:53:43.425Z,5.40
2023-03-08T16:04:09.473Z,7.20
2023-03-08T16:14:35.946Z,6.30
2023-03-08T16:25:02.236Z,4.70
2023-03-08T16:35:28.266Z,7.30
2023-03-08T16:45:58.944Z,8.30
2023-03-08T16:56:26.620Z,6.30
2023-03-08T17:06:52.757Z,6.70
2023-03-08T17:17:18.920Z,6.90
2023-03-08T17:27:44.549Z,7.50
2023-03-08T17:38:10.786Z,6.50
2023-03-08T17:48:38.365Z,12.70
2023-03-08T17:59:04.215Z,6.20
2023-03-08T18:09:32.291Z,8.00
2023-03-08T18:30:22.756Z,10.90
2023-03-08T18:40:48.589Z,13.90
2023-03-08T18:51:16.492Z,13.40
2023-03-08T19:01:42.651Z,12.50
2023-03-08T19:12:09.143Z,17.10
2023-03-08T19:22:34.761Z,12.10
2023-03-08T19:33:00.500Z,13.60
2023-03-08T19:43:26.384Z,11.40
2023-03-08T19:53:52.082Z,13.10
2023-03-08T20:04:17.910Z,12.60
2023-03-08T20:14:43.723Z,10.10
2023-03-08T20:25:12.666Z,12.50
2023-03-08T20:35:38.371Z,14.00
2023-03-08T20:46:07.232Z,14.00
2023-03-08T20:56:33.168Z,12.30
2023-03-08T21:06:59.613Z,14.00
2023-03-08T21:17:26.285Z,14.10
2023-03-08T21:27:51.875Z,16.80
2023-03-08T21:38:18.131Z,15.30
2023-03-08T21:48:44.591Z,11.70
2023-03-08T21:59:10.600Z,10.60
2023-03-08T22:09:36.324Z,11.20
2023-03-08T22:20:01.835Z,11.70
2023-03-08T22:30:27.759Z,9.50
2023-03-08T22:40:53.204Z,11.50
2023-03-08T22:51:21.383Z,13.80
2023-03-08T23:01:47.183Z,12.90
2023-03-08T23:12:13.325Z,11.30
2023-03-08T23:22:39.347Z,10.40
2023-03-08T23:33:14.107Z,9.00
2023-03-08T23:43:40.591Z,8.40
2023-03-08T23:54:07.343Z,10.60
